sensor_id;sensor_type;location;lat;lon;timestamp;temperature;humidity
35970;DHT22;22448;51.298;6.430;2022-12-16T00:01:22;-7.80;99.90
35970;DHT22;22448;51.298;6.430;2022-12-16T00:03:51;-7.80;99.90
35970;DHT22;22448;51.298;6.430;2022-12-16T00:06:23;-7.80;99.90
35970;DHT22;22448;51.298;6.430;2022-12-16T00:08:50;-7.80;99.90
35970;DHT22;22448;51.298;6.430;2022-12-16T00:11:19;-7.80;99.90
35970;DHT22;22448;51.298;6.430;2022-12-16T00:13:46;-7.80;99.90
35970;DHT22;22448;51.298;6.430;2022-12-16T00:16:15;-7.80;99.90
35970;DHT22;22448;51.298;6.430;2022-12-16T00:18:44;-7.80;99.90
35970;DHT22;22448;51.298;6.430;2022-12-16T00:21:11;-7.80;99.90
35970;DHT22;22448;51.298;6.430;2022-12-16T00:23:38;-7.90;99.90
35970;DHT22;22448;51.298;6.430;2022-12-16T00:26:07;-7.90;99.90
35970;DHT22;22448;51.298;6.430;2022-12-16T00:28:35;-7.90;99.90
35970;DHT22;22448;51.298;6.430;2022-12-16T00:31:03;-7.90;99.90
35970;DHT22;22448;51.298;6.430;2022-12-16T00:33:30;-7.90;99.90
35970;DHT22;22448;51.298;6.430;2022-12-16T00:35:58;-8.00;99.90
35970;DHT22;22448;51.298;6.430;2022-12-16T00:38:26;-8.00;99.90
35970;DHT22;22448;51.298;6.430;2022-12-16T00:40:53;-8.00;99.90
35970;DHT22;22448;51.298;6.430;2022-12-16T00:43:20;-7.90;99.90
35970;DHT22;22448;51.298;6.430;2022-12-16T00:45:48;-7.90;99.90
35970;DHT22;22448;51.298;6.430;2022-12-16T00:48:17;-7.90;99.90
35970;DHT22;22448;51.298;6.430;2022-12-16T00:50:52;-7.80;99.90
35970;DHT22;22448;51.298;6.430;2022-12-16T00:53:22;-7.80;99.90
35970;DHT22;22448;51.298;6.430;2022-12-16T00:55:49;-7.80;99.90
35970;DHT22;22448;51.298;6.430;2022-12-16T00:58:17;-7.70;99.90
35970;DHT22;22448;51.298;6.430;2022-12-16T01:00:44;-7.70;99.90
35970;DHT22;22448;51.298;6.430;2022-12-16T01:03:11;-7.70;99.90
35970;DHT22;22448;51.298;6.430;2022-12-16T01:05:47;-7.70;99.90
35970;DHT22;22448;51.298;6.430;2022-12-16T01:08:14;-7.70;99.90
35970;DHT22;22448;51.298;6.430;2022-12-16T01:10:41;-7.60;99.90
35970;DHT22;22448;51.298;6.430;2022-12-16T01:13:08;-7.60;99.90
35970;DHT22;22448;51.298;6.430;2022-12-16T01:15:36;-7.60;99.90
35970;DHT22;22448;51.298;6.430;2022-12-16T01:18:03;-7.60;99.90
35970;DHT22;22448;51.298;6.430;2022-12-16T01:20:31;-7.60;99.90
35970;DHT22;22448;51.298;6.430;2022-12-16T01:22:59;-7.60;99.90
35970;DHT22;22448;51.298;6.430;2022-12-16T01:25:26;-7.60;99.90
35970;DHT22;22448;51.298;6.430;2022-12-16T01:27:53;-7.70;99.90
35970;DHT22;22448;51.298;6.430;2022-12-16T01:30:21;-7.70;99.90
35970;DHT22;22448;51.298;6.430;2022-12-16T01:32:49;-7.70;99.90
35970;DHT22;22448;51.298;6.430;2022-12-16T01:35:16;-7.70;99.90
35970;DHT22;22448;51.298;6.430;2022-12-16T01:38:03;-7.70;99.90
35970;DHT22;22448;51.298;6.430;2022-12-16T01:40:30;-7.80;99.90
35970;DHT22;22448;51.298;6.430;2022-12-16T01:42:57;-7.80;99.90
35970;DHT22;22448;51.298;6.430;2022-12-16T01:45:29;-7.80;99.90
35970;DHT22;22448;51.298;6.430;2022-12-16T01:48:00;-7.90;99.90
35970;DHT22;22448;51.298;6.430;2022-12-16T01:50:29;-7.80;99.90
35970;DHT22;22448;51.298;6.430;2022-12-16T01:52:58;-7.90;99.90
35970;DHT22;22448;51.298;6.430;2022-12-16T01:55:30;-7.90;99.90
35970;DHT22;22448;51.298;6.430;2022-12-16T01:58:03;-7.90;99.90
35970;DHT22;22448;51.298;6.430;2022-12-16T02:00:33;-7.90;99.90
35970;DHT22;22448;51.298;6.430;2022-12-16T02:03:01;-7.80;99.90
35970;DHT22;22448;51.298;6.430;2022-12-16T02:05:28;-7.90;99.90
35970;DHT22;22448;51.298;6.430;2022-12-16T02:08:00;-7.90;99.90
35970;DHT22;22448;51.298;6.430;2022-12-16T02:13:39;-7.80;99.90
35970;DHT22;22448;51.298;6.430;2022-12-16T02:33:00;-7.50;99.90
35970;DHT22;22448;51.298;6.430;2022-12-16T02:35:55;-7.40;99.90
35970;DHT22;22448;51.298;6.430;2022-12-16T02:41:32;-7.30;99.90
35970;DHT22;22448;51.298;6.430;2022-12-16T02:44:08;-7.20;99.90
35970;DHT22;22448;51.298;6.430;2022-12-16T02:46:50;-7.20;99.90
35970;DHT22;22448;51.298;6.430;2022-12-16T02:51:48;-7.10;99.90
35970;DHT22;22448;51.298;6.430;2022-12-16T02:54:16;-7.10;99.90
35970;DHT22;22448;51.298;6.430;2022-12-16T02:59:30;-7.10;99.90
35970;DHT22;22448;51.298;6.430;2022-12-16T03:04:44;-7.10;99.90
35970;DHT22;22448;51.298;6.430;2022-12-16T03:07:16;-7.20;99.90
35970;DHT22;22448;51.298;6.430;2022-12-16T03:09:45;-7.10;99.90
35970;DHT22;22448;51.298;6.430;2022-12-16T03:12:15;-7.10;99.90
35970;DHT22;22448;51.298;6.430;2022-12-16T03:14:46;-7.10;99.90
35970;DHT22;22448;51.298;6.430;2022-12-16T03:17:15;-7.10;99.90
35970;DHT22;22448;51.298;6.430;2022-12-16T03:19:51;-7.10;99.90
35970;DHT22;22448;51.298;6.430;2022-12-16T03:22:25;-7.10;99.90
35970;DHT22;22448;51.298;6.430;2022-12-16T03:24:53;-7.00;99.90
35970;DHT22;22448;51.298;6.430;2022-12-16T03:27:33;-7.10;99.90
35970;DHT22;22448;51.298;6.430;2022-12-16T03:30:05;-7.10;99.90
35970;DHT22;22448;51.298;6.430;2022-12-16T03:32:44;-7.00;99.90
35970;DHT22;22448;51.298;6.430;2022-12-16T03:35:25;-7.00;99.90
35970;DHT22;22448;51.298;6.430;2022-12-16T03:37:55;-7.00;99.90
35970;DHT22;22448;51.298;6.430;2022-12-16T03:40:24;-7.00;99.90
35970;DHT22;22448;51.298;6.430;2022-12-16T03:42:53;-6.90;99.90
35970;DHT22;22448;51.298;6.430;2022-12-16T03:45:48;-6.90;99.90
35970;DHT22;22448;51.298;6.430;2022-12-16T03:48:21;-6.80;99.90
35970;DHT22;22448;51.298;6.430;2022-12-16T03:50:49;-6.80;99.90
35970;DHT22;22448;51.298;6.430;2022-12-16T03:53:16;-6.80;99.90
35970;DHT22;22448;51.298;6.430;2022-12-16T03:55:43;-6.80;99.90
35970;DHT22;22448;51.298;6.430;2022-12-16T03:58:10;-6.80;99.90
35970;DHT22;22448;51.298;6.430;2022-12-16T04:00:37;-6.70;99.90
35970;DHT22;22448;51.298;6.430;2022-12-16T04:03:04;-6.80;99.90
35970;DHT22;22448;51.298;6.430;2022-12-16T04:05:31;-6.70;99.90
35970;DHT22;22448;51.298;6.430;2022-12-16T04:07:58;-6.70;99.90
35970;DHT22;22448;51.298;6.430;2022-12-16T04:10:28;-6.70;99.90
35970;DHT22;22448;51.298;6.430;2022-12-16T04:13:14;-6.70;99.90
35970;DHT22;22448;51.298;6.430;2022-12-16T04:16:00;-6.70;99.90
35970;DHT22;22448;51.298;6.430;2022-12-16T04:18:46;-6.70;99.90
35970;DHT22;22448;51.298;6.430;2022-12-16T04:21:32;-6.60;99.90
35970;DHT22;22448;51.298;6.430;2022-12-16T04:24:19;-6.60;99.90
35970;DHT22;22448;51.298;6.430;2022-12-16T04:26:46;-6.60;99.90
35970;DHT22;22448;51.298;6.430;2022-12-16T04:29:41;-6.60;99.90
35970;DHT22;22448;51.298;6.430;2022-12-16T04:32:26;-6.60;99.90
35970;DHT22;22448;51.298;6.430;2022-12-16T04:34:53;-6.60;99.90
35970;DHT22;22448;51.298;6.430;2022-12-16T04:37:20;-6.60;99.90
35970;DHT22;22448;51.298;6.430;2022-12-16T04:40:06;-6.60;99.90
35970;DHT22;22448;51.298;6.430;2022-12-16T04:42:52;-6.70;99.90
35970;DHT22;22448;51.298;6.430;2022-12-16T04:45:38;-6.80;99.90
35970;DHT22;22448;51.298;6.430;2022-12-16T04:48:24;-6.90;99.90
35970;DHT22;22448;51.298;6.430;2022-12-16T04:51:12;-7.00;99.90
35970;DHT22;22448;51.298;6.430;2022-12-16T04:53:58;-7.00;99.90
35970;DHT22;22448;51.298;6.430;2022-12-16T04:56:43;-7.10;99.90
35970;DHT22;22448;51.298;6.430;2022-12-16T04:59:29;-7.10;99.90
35970;DHT22;22448;51.298;6.430;2022-12-16T05:02:14;-7.20;99.90
35970;DHT22;22448;51.298;6.430;2022-12-16T05:05:17;-7.20;99.90
35970;DHT22;22448;51.298;6.430;2022-12-16T05:08:03;-7.30;99.90
35970;DHT22;22448;51.298;6.430;2022-12-16T05:10:48;-7.30;99.90
35970;DHT22;22448;51.298;6.430;2022-12-16T05:13:33;-7.40;99.90
35970;DHT22;22448;51.298;6.430;2022-12-16T05:16:30;-7.40;99.90
35970;DHT22;22448;51.298;6.430;2022-12-16T05:19:16;-7.40;99.90
35970;DHT22;22448;51.298;6.430;2022-12-16T05:22:01;-7.50;99.90
35970;DHT22;22448;51.298;6.430;2022-12-16T05:24:47;-7.50;99.90
35970;DHT22;22448;51.298;6.430;2022-12-16T05:27:32;-7.60;99.90
35970;DHT22;22448;51.298;6.430;2022-12-16T05:30:18;-7.60;99.90
35970;DHT22;22448;51.298;6.430;2022-12-16T05:33:04;-7.60;99.90
35970;DHT22;22448;51.298;6.430;2022-12-16T05:35:49;-7.60;99.90
35970;DHT22;22448;51.298;6.430;2022-12-16T05:38:35;-7.60;99.90
35970;DHT22;22448;51.298;6.430;2022-12-16T05:41:21;-7.60;99.90
35970;DHT22;22448;51.298;6.430;2022-12-16T05:44:06;-7.70;99.90
35970;DHT22;22448;51.298;6.430;2022-12-16T05:46:52;-7.60;99.90
35970;DHT22;22448;51.298;6.430;2022-12-16T05:49:37;-7.70;99.90
35970;DHT22;22448;51.298;6.430;2022-12-16T05:52:27;-7.70;99.90
35970;DHT22;22448;51.298;6.430;2022-12-16T05:55:13;-7.70;99.90
35970;DHT22;22448;51.298;6.430;2022-12-16T05:58:00;-7.80;99.90
35970;DHT22;22448;51.298;6.430;2022-12-16T06:00:45;-7.80;99.90
35970;DHT22;22448;51.298;6.430;2022-12-16T06:03:30;-7.70;99.90
35970;DHT22;22448;51.298;6.430;2022-12-16T06:06:16;-7.70;99.90
35970;DHT22;22448;51.298;6.430;2022-12-16T06:09:02;-7.50;99.90
35970;DHT22;22448;51.298;6.430;2022-12-16T06:11:48;-7.40;99.90
35970;DHT22;22448;51.298;6.430;2022-12-16T06:14:34;-7.30;99.90
35970;DHT22;22448;51.298;6.430;2022-12-16T06:17:20;-7.10;99.90
35970;DHT22;22448;51.298;6.430;2022-12-16T06:20:06;-7.00;99.90
35970;DHT22;22448;51.298;6.430;2022-12-16T06:22:53;-6.80;99.90
35970;DHT22;22448;51.298;6.430;2022-12-16T06:25:39;-6.70;99.90
35970;DHT22;22448;51.298;6.430;2022-12-16T06:28:25;-6.60;99.90
35970;DHT22;22448;51.298;6.430;2022-12-16T06:31:12;-6.50;99.90
35970;DHT22;22448;51.298;6.430;2022-12-16T06:33:58;-6.40;99.90
35970;DHT22;22448;51.298;6.430;2022-12-16T06:36:43;-6.40;99.90
35970;DHT22;22448;51.298;6.430;2022-12-16T06:39:29;-6.40;99.90
35970;DHT22;22448;51.298;6.430;2022-12-16T06:42:19;-6.30;99.90
35970;DHT22;22448;51.298;6.430;2022-12-16T06:45:04;-6.30;99.90
35970;DHT22;22448;51.298;6.430;2022-12-16T06:47:55;-6.20;99.90
35970;DHT22;22448;51.298;6.430;2022-12-16T06:50:41;-6.10;99.90
35970;DHT22;22448;51.298;6.430;2022-12-16T06:53:26;-6.10;99.90
35970;DHT22;22448;51.298;6.430;2022-12-16T06:56:12;-6.10;99.90
35970;DHT22;22448;51.298;6.430;2022-12-16T06:58:57;-6.00;99.90
35970;DHT22;22448;51.298;6.430;2022-12-16T07:01:43;-6.00;99.90
35970;DHT22;22448;51.298;6.430;2022-12-16T07:04:29;-6.00;99.90
35970;DHT22;22448;51.298;6.430;2022-12-16T07:07:15;-5.90;99.90
35970;DHT22;22448;51.298;6.430;2022-12-16T07:12:50;-5.80;99.90
35970;DHT22;22448;51.298;6.430;2022-12-16T07:15:36;-5.80;99.90
35970;DHT22;22448;51.298;6.430;2022-12-16T07:18:21;-5.80;99.90
35970;DHT22;22448;51.298;6.430;2022-12-16T07:21:07;-5.80;99.90
35970;DHT22;22448;51.298;6.430;2022-12-16T07:23:52;-5.70;99.90
35970;DHT22;22448;51.298;6.430;2022-12-16T07:26:38;-5.70;99.90
35970;DHT22;22448;51.298;6.430;2022-12-16T07:29:24;-5.70;99.90
35970;DHT22;22448;51.298;6.430;2022-12-16T07:32:09;-5.70;99.90
35970;DHT22;22448;51.298;6.430;2022-12-16T07:34:55;-5.60;99.90
35970;DHT22;22448;51.298;6.430;2022-12-16T07:37:41;-5.60;99.90
35970;DHT22;22448;51.298;6.430;2022-12-16T07:40:26;-5.60;99.90
35970;DHT22;22448;51.298;6.430;2022-12-16T07:43:12;-5.60;99.90
35970;DHT22;22448;51.298;6.430;2022-12-16T07:45:58;-5.50;99.90
35970;DHT22;22448;51.298;6.430;2022-12-16T07:48:44;-5.50;99.90
35970;DHT22;22448;51.298;6.430;2022-12-16T07:51:49;-5.40;99.90
35970;DHT22;22448;51.298;6.430;2022-12-16T07:54:35;-5.40;99.90
35970;DHT22;22448;51.298;6.430;2022-12-16T07:57:21;-5.30;99.90
35970;DHT22;22448;51.298;6.430;2022-12-16T08:00:07;-5.30;99.90
35970;DHT22;22448;51.298;6.430;2022-12-16T08:02:53;-5.20;99.90
35970;DHT22;22448;51.298;6.430;2022-12-16T08:05:39;-5.20;99.90
35970;DHT22;22448;51.298;6.430;2022-12-16T08:08:24;-5.10;99.90
35970;DHT22;22448;51.298;6.430;2022-12-16T08:11:10;-5.10;99.90
35970;DHT22;22448;51.298;6.430;2022-12-16T08:13:55;-5.10;99.90
35970;DHT22;22448;51.298;6.430;2022-12-16T08:16:41;-5.00;99.90
35970;DHT22;22448;51.298;6.430;2022-12-16T08:19:26;-5.00;99.90
35970;DHT22;22448;51.298;6.430;2022-12-16T08:22:12;-4.90;99.90
35970;DHT22;22448;51.298;6.430;2022-12-16T08:24:58;-4.90;99.90
35970;DHT22;22448;51.298;6.430;2022-12-16T08:27:43;-4.90;99.90
35970;DHT22;22448;51.298;6.430;2022-12-16T08:30:29;-4.90;99.90
35970;DHT22;22448;51.298;6.430;2022-12-16T08:33:15;-4.90;99.90
35970;DHT22;22448;51.298;6.430;2022-12-16T08:36:01;-4.90;99.90
35970;DHT22;22448;51.298;6.430;2022-12-16T08:38:47;-4.80;99.90
35970;DHT22;22448;51.298;6.430;2022-12-16T08:41:33;-4.70;99.90
35970;DHT22;22448;51.298;6.430;2022-12-16T08:44:19;-4.70;99.90
35970;DHT22;22448;51.298;6.430;2022-12-16T08:47:05;-4.70;99.90
35970;DHT22;22448;51.298;6.430;2022-12-16T08:49:50;-4.60;99.90
35970;DHT22;22448;51.298;6.430;2022-12-16T08:52:36;-4.60;99.90
35970;DHT22;22448;51.298;6.430;2022-12-16T08:55:22;-4.50;99.90
35970;DHT22;22448;51.298;6.430;2022-12-16T08:58:07;-4.50;99.90
35970;DHT22;22448;51.298;6.430;2022-12-16T09:00:53;-4.40;99.90
35970;DHT22;22448;51.298;6.430;2022-12-16T09:03:38;-4.40;99.90
35970;DHT22;22448;51.298;6.430;2022-12-16T09:06:24;-4.40;99.90
35970;DHT22;22448;51.298;6.430;2022-12-16T09:09:10;-4.30;99.90
35970;DHT22;22448;51.298;6.430;2022-12-16T09:11:56;-4.40;99.90
35970;DHT22;22448;51.298;6.430;2022-12-16T09:14:41;-4.40;99.90
35970;DHT22;22448;51.298;6.430;2022-12-16T09:17:26;-4.30;99.90
35970;DHT22;22448;51.298;6.430;2022-12-16T09:20:12;-4.30;99.90
35970;DHT22;22448;51.298;6.430;2022-12-16T09:23:01;-4.30;99.90
35970;DHT22;22448;51.298;6.430;2022-12-16T09:25:46;-4.20;99.90
35970;DHT22;22448;51.298;6.430;2022-12-16T09:28:32;-4.20;99.90
35970;DHT22;22448;51.298;6.430;2022-12-16T09:31:18;-4.20;99.90
35970;DHT22;22448;51.298;6.430;2022-12-16T09:34:04;-4.20;99.90
35970;DHT22;22448;51.298;6.430;2022-12-16T09:36:50;-4.20;99.90
35970;DHT22;22448;51.298;6.430;2022-12-16T09:39:35;-4.10;99.90
35970;DHT22;22448;51.298;6.430;2022-12-16T09:42:41;-4.10;99.90
35970;DHT22;22448;51.298;6.430;2022-12-16T09:45:50;-4.20;99.90
35970;DHT22;22448;51.298;6.430;2022-12-16T09:49:05;-4.10;99.90
35970;DHT22;22448;51.298;6.430;2022-12-16T09:51:56;-4.10;99.90
35970;DHT22;22448;51.298;6.430;2022-12-16T09:54:45;-4.00;99.90
35970;DHT22;22448;51.298;6.430;2022-12-16T09:57:33;-3.90;99.90
35970;DHT22;22448;51.298;6.430;2022-12-16T10:00:26;-3.90;99.90
35970;DHT22;22448;51.298;6.430;2022-12-16T10:03:25;-3.90;99.90
35970;DHT22;22448;51.298;6.430;2022-12-16T10:15:49;-3.70;99.90
35970;DHT22;22448;51.298;6.430;2022-12-16T10:18:54;-3.60;99.90
35970;DHT22;22448;51.298;6.430;2022-12-16T10:21:57;-3.50;99.90
35970;DHT22;22448;51.298;6.430;2022-12-16T10:27:47;-3.50;99.90
35970;DHT22;22448;51.298;6.430;2022-12-16T10:30:35;-3.40;99.90
35970;DHT22;22448;51.298;6.430;2022-12-16T10:33:26;-3.40;99.90
35970;DHT22;22448;51.298;6.430;2022-12-16T10:36:20;-3.40;99.90
35970;DHT22;22448;51.298;6.430;2022-12-16T10:39:20;-3.40;99.90
35970;DHT22;22448;51.298;6.430;2022-12-16T10:42:27;-3.30;99.90
35970;DHT22;22448;51.298;6.430;2022-12-16T10:48:10;-3.30;99.90
35970;DHT22;22448;51.298;6.430;2022-12-16T10:50:58;-3.30;99.90
35970;DHT22;22448;51.298;6.430;2022-12-16T10:53:49;-3.30;99.90
35970;DHT22;22448;51.298;6.430;2022-12-16T10:56:50;-3.20;99.90
35970;DHT22;22448;51.298;6.430;2022-12-16T10:59:40;-3.20;99.90
35970;DHT22;22448;51.298;6.430;2022-12-16T11:02:27;-3.10;99.90
35970;DHT22;22448;51.298;6.430;2022-12-16T11:08:34;-3.10;99.90
35970;DHT22;22448;51.298;6.430;2022-12-16T11:11:26;-3.00;99.90
35970;DHT22;22448;51.298;6.430;2022-12-16T11:14:21;-3.00;99.90
35970;DHT22;22448;51.298;6.430;2022-12-16T11:17:28;-2.90;99.90
35970;DHT22;22448;51.298;6.430;2022-12-16T11:23:23;-2.80;99.90
35970;DHT22;22448;51.298;6.430;2022-12-16T11:31:53;-2.60;99.90
35970;DHT22;22448;51.298;6.430;2022-12-16T11:34:41;-2.60;99.90
35970;DHT22;22448;51.298;6.430;2022-12-16T11:37:29;-2.50;99.90
35970;DHT22;22448;51.298;6.430;2022-12-16T11:40:16;-2.50;99.90
35970;DHT22;22448;51.298;6.430;2022-12-16T11:43:04;-2.50;99.90
35970;DHT22;22448;51.298;6.430;2022-12-16T11:45:51;-2.50;99.90
35970;DHT22;22448;51.298;6.430;2022-12-16T11:48:53;-2.50;99.90
35970;DHT22;22448;51.298;6.430;2022-12-16T11:51:56;-2.50;99.90
35970;DHT22;22448;51.298;6.430;2022-12-16T11:55:25;-2.40;99.90
35970;DHT22;22448;51.298;6.430;2022-12-16T11:58:45;-2.40;99.90
35970;DHT22;22448;51.298;6.430;2022-12-16T12:01:51;-2.40;99.90
35970;DHT22;22448;51.298;6.430;2022-12-16T12:04:39;-2.40;99.90
35970;DHT22;22448;51.298;6.430;2022-12-16T12:07:54;-2.30;99.90
35970;DHT22;22448;51.298;6.430;2022-12-16T12:11:14;-2.30;99.90
35970;DHT22;22448;51.298;6.430;2022-12-16T12:18:07;-2.20;99.90
35970;DHT22;22448;51.298;6.430;2022-12-16T12:26:36;-2.10;99.90
35970;DHT22;22448;51.298;6.430;2022-12-16T12:29:39;-2.00;99.90
35970;DHT22;22448;51.298;6.430;2022-12-16T12:35:44;-1.80;99.90
35970;DHT22;22448;51.298;6.430;2022-12-16T12:38:34;-1.70;99.90
35970;DHT22;22448;51.298;6.430;2022-12-16T12:44:21;-1.50;99.90
35970;DHT22;22448;51.298;6.430;2022-12-16T12:47:15;-1.40;99.90
35970;DHT22;22448;51.298;6.430;2022-12-16T12:50:29;-1.40;99.90
35970;DHT22;22448;51.298;6.430;2022-12-16T12:53:23;-1.40;99.90
35970;DHT22;22448;51.298;6.430;2022-12-16T12:56:33;-1.40;99.90
35970;DHT22;22448;51.298;6.430;2022-12-16T12:59:57;-1.40;99.90
35970;DHT22;22448;51.298;6.430;2022-12-16T13:05:43;-1.40;99.90
35970;DHT22;22448;51.298;6.430;2022-12-16T13:11:30;-1.30;99.90
35970;DHT22;22448;51.298;6.430;2022-12-16T13:17:19;-1.40;99.90
35970;DHT22;22448;51.298;6.430;2022-12-16T13:20:34;-1.30;99.90
35970;DHT22;22448;51.298;6.430;2022-12-16T13:23:29;-1.40;99.90
35970;DHT22;22448;51.298;6.430;2022-12-16T13:26:18;-1.40;99.90
35970;DHT22;22448;51.298;6.430;2022-12-16T13:40:54;-1.30;99.90
35970;DHT22;22448;51.298;6.430;2022-12-16T13:43:47;-1.40;99.90
35970;DHT22;22448;51.298;6.430;2022-12-16T13:46:50;-1.40;99.90
35970;DHT22;22448;51.298;6.430;2022-12-16T13:49:46;-1.30;99.90
35970;DHT22;22448;51.298;6.430;2022-12-16T13:52:56;-1.30;99.90
35970;DHT22;22448;51.298;6.430;2022-12-16T13:59:00;-1.40;99.90
35970;DHT22;22448;51.298;6.430;2022-12-16T14:02:00;-1.40;99.90
35970;DHT22;22448;51.298;6.430;2022-12-16T14:04:52;-1.40;99.90
35970;DHT22;22448;51.298;6.430;2022-12-16T14:07:39;-1.40;99.90
35970;DHT22;22448;51.298;6.430;2022-12-16T14:10:32;-1.40;99.90
35970;DHT22;22448;51.298;6.430;2022-12-16T14:25:14;-1.50;99.90
35970;DHT22;22448;51.298;6.430;2022-12-16T14:28:21;-1.40;99.90
35970;DHT22;22448;51.298;6.430;2022-12-16T14:31:23;-1.40;99.90
35970;DHT22;22448;51.298;6.430;2022-12-16T14:34:21;-1.50;99.90
35970;DHT22;22448;51.298;6.430;2022-12-16T14:37:18;-1.40;99.90
35970;DHT22;22448;51.298;6.430;2022-12-16T14:40:18;-1.40;99.90
35970;DHT22;22448;51.298;6.430;2022-12-16T14:43:20;-1.40;99.90
35970;DHT22;22448;51.298;6.430;2022-12-16T14:46:23;-1.40;99.90
35970;DHT22;22448;51.298;6.430;2022-12-16T14:52:35;-1.40;99.90
35970;DHT22;22448;51.298;6.430;2022-12-16T14:55:32;-1.40;99.90
35970;DHT22;22448;51.298;6.430;2022-12-16T14:58:20;-1.40;99.90
35970;DHT22;22448;51.298;6.430;2022-12-16T15:01:23;-1.40;99.90
35970;DHT22;22448;51.298;6.430;2022-12-16T15:04:28;-1.40;99.90
35970;DHT22;22448;51.298;6.430;2022-12-16T15:07:15;-1.40;99.90
35970;DHT22;22448;51.298;6.430;2022-12-16T15:10:00;-1.40;99.90
35970;DHT22;22448;51.298;6.430;2022-12-16T15:12:47;-1.40;99.90
35970;DHT22;22448;51.298;6.430;2022-12-16T15:16:00;-1.40;99.90
35970;DHT22;22448;51.298;6.430;2022-12-16T15:18:53;-1.50;99.90
35970;DHT22;22448;51.298;6.430;2022-12-16T15:21:42;-1.50;99.90
35970;DHT22;22448;51.298;6.430;2022-12-16T15:24:33;-1.50;99.90
35970;DHT22;22448;51.298;6.430;2022-12-16T15:30:42;-1.50;99.90
35970;DHT22;22448;51.298;6.430;2022-12-16T15:33:34;-1.50;99.90
35970;DHT22;22448;51.298;6.430;2022-12-16T15:36:31;-1.50;99.90
35970;DHT22;22448;51.298;6.430;2022-12-16T15:39:36;-1.50;99.90
35970;DHT22;22448;51.298;6.430;2022-12-16T15:42:32;-1.50;99.90
35970;DHT22;22448;51.298;6.430;2022-12-16T15:45:29;-1.50;99.90
35970;DHT22;22448;51.298;6.430;2022-12-16T15:48:25;-1.50;99.90
35970;DHT22;22448;51.298;6.430;2022-12-16T15:51:38;-1.50;99.90
35970;DHT22;22448;51.298;6.430;2022-12-16T15:54:25;-1.50;99.90
35970;DHT22;22448;51.298;6.430;2022-12-16T15:57:30;-1.50;99.90
35970;DHT22;22448;51.298;6.430;2022-12-16T16:00:29;-1.50;99.90
35970;DHT22;22448;51.298;6.430;2022-12-16T16:06:16;-1.50;99.90
35970;DHT22;22448;51.298;6.430;2022-12-16T16:09:18;-1.50;99.90
35970;DHT22;22448;51.298;6.430;2022-12-16T16:12:04;-1.50;99.90
35970;DHT22;22448;51.298;6.430;2022-12-16T16:14:49;-1.50;99.90
35970;DHT22;22448;51.298;6.430;2022-12-16T16:17:35;-1.50;99.90
35970;DHT22;22448;51.298;6.430;2022-12-16T16:20:20;-1.50;99.90
35970;DHT22;22448;51.298;6.430;2022-12-16T16:23:07;-1.50;99.90
35970;DHT22;22448;51.298;6.430;2022-12-16T16:25:52;-1.50;99.90
35970;DHT22;22448;51.298;6.430;2022-12-16T16:28:37;-1.50;99.90
35970;DHT22;22448;51.298;6.430;2022-12-16T16:31:24;-1.40;99.90
35970;DHT22;22448;51.298;6.430;2022-12-16T16:34:10;-1.40;99.90
35970;DHT22;22448;51.298;6.430;2022-12-16T16:36:57;-1.40;99.90
35970;DHT22;22448;51.298;6.430;2022-12-16T16:39:43;-1.40;99.90
35970;DHT22;22448;51.298;6.430;2022-12-16T16:42:28;-1.40;99.90
35970;DHT22;22448;51.298;6.430;2022-12-16T16:45:15;-1.40;99.90
35970;DHT22;22448;51.298;6.430;2022-12-16T16:48:14;-1.40;99.90
35970;DHT22;22448;51.298;6.430;2022-12-16T16:51:01;-1.40;99.90
35970;DHT22;22448;51.298;6.430;2022-12-16T16:54:07;-1.40;99.90
35970;DHT22;22448;51.298;6.430;2022-12-16T16:56:52;-1.40;99.90
35970;DHT22;22448;51.298;6.430;2022-12-16T16:59:37;-1.40;99.90
35970;DHT22;22448;51.298;6.430;2022-12-16T17:02:24;-1.40;99.90
35970;DHT22;22448;51.298;6.430;2022-12-16T17:05:10;-1.40;99.90
35970;DHT22;22448;51.298;6.430;2022-12-16T17:07:56;-1.40;99.90
35970;DHT22;22448;51.298;6.430;2022-12-16T17:10:42;-1.40;99.90
35970;DHT22;22448;51.298;6.430;2022-12-16T17:13:27;-1.40;99.90
35970;DHT22;22448;51.298;6.430;2022-12-16T17:16:13;-1.40;99.90
35970;DHT22;22448;51.298;6.430;2022-12-16T17:19:02;-1.40;99.90
35970;DHT22;22448;51.298;6.430;2022-12-16T17:21:47;-1.40;99.90
35970;DHT22;22448;51.298;6.430;2022-12-16T17:24:33;-1.30;99.90
35970;DHT22;22448;51.298;6.430;2022-12-16T17:27:23;-1.30;99.90
35970;DHT22;22448;51.298;6.430;2022-12-16T17:30:19;-1.30;99.90
35970;DHT22;22448;51.298;6.430;2022-12-16T17:33:14;-1.30;99.90
35970;DHT22;22448;51.298;6.430;2022-12-16T17:36:00;-1.30;99.90
35970;DHT22;22448;51.298;6.430;2022-12-16T17:38:46;-1.30;99.90
35970;DHT22;22448;51.298;6.430;2022-12-16T17:41:32;-1.30;99.90
35970;DHT22;22448;51.298;6.430;2022-12-16T17:44:18;-1.30;99.90
35970;DHT22;22448;51.298;6.430;2022-12-16T17:47:04;-1.30;99.90
35970;DHT22;22448;51.298;6.430;2022-12-16T17:49:50;-1.30;99.90
35970;DHT22;22448;51.298;6.430;2022-12-16T17:52:36;-1.30;99.90
35970;DHT22;22448;51.298;6.430;2022-12-16T17:55:21;-1.30;99.90
35970;DHT22;22448;51.298;6.430;2022-12-16T17:58:07;-1.30;99.90
35970;DHT22;22448;51.298;6.430;2022-12-16T18:01:00;-1.30;99.90
35970;DHT22;22448;51.298;6.430;2022-12-16T18:03:47;-1.30;99.90
35970;DHT22;22448;51.298;6.430;2022-12-16T18:06:33;-1.30;99.90
35970;DHT22;22448;51.298;6.430;2022-12-16T18:09:18;-1.30;99.90
35970;DHT22;22448;51.298;6.430;2022-12-16T18:12:04;-1.30;99.90
35970;DHT22;22448;51.298;6.430;2022-12-16T18:14:50;-1.30;99.90
35970;DHT22;22448;51.298;6.430;2022-12-16T18:17:35;-1.30;99.90
35970;DHT22;22448;51.298;6.430;2022-12-16T18:20:20;-1.30;99.90
35970;DHT22;22448;51.298;6.430;2022-12-16T18:23:06;-1.30;99.90
35970;DHT22;22448;51.298;6.430;2022-12-16T18:25:59;-1.30;99.90
35970;DHT22;22448;51.298;6.430;2022-12-16T18:28:45;-1.30;99.90
35970;DHT22;22448;51.298;6.430;2022-12-16T18:31:31;-1.30;99.90
35970;DHT22;22448;51.298;6.430;2022-12-16T18:34:17;-1.30;99.90
35970;DHT22;22448;51.298;6.430;2022-12-16T18:37:03;-1.30;99.90
35970;DHT22;22448;51.298;6.430;2022-12-16T18:39:48;-1.30;99.90
35970;DHT22;22448;51.298;6.430;2022-12-16T18:42:34;-1.30;99.90
35970;DHT22;22448;51.298;6.430;2022-12-16T18:45:19;-1.30;99.90
35970;DHT22;22448;51.298;6.430;2022-12-16T18:48:05;-1.30;99.90
35970;DHT22;22448;51.298;6.430;2022-12-16T18:50:58;-1.30;99.90
35970;DHT22;22448;51.298;6.430;2022-12-16T18:53:44;-1.20;99.90
35970;DHT22;22448;51.298;6.430;2022-12-16T18:56:30;-1.30;99.90
35970;DHT22;22448;51.298;6.430;2022-12-16T18:59:15;-1.30;99.90
35970;DHT22;22448;51.298;6.430;2022-12-16T19:02:01;-1.30;99.90
35970;DHT22;22448;51.298;6.430;2022-12-16T19:04:47;-1.30;99.90
35970;DHT22;22448;51.298;6.430;2022-12-16T19:07:32;-1.30;99.90
35970;DHT22;22448;51.298;6.430;2022-12-16T19:10:28;-1.30;99.90
35970;DHT22;22448;51.298;6.430;2022-12-16T19:13:14;-1.30;99.90
35970;DHT22;22448;51.298;6.430;2022-12-16T19:16:01;-1.30;99.90
35970;DHT22;22448;51.298;6.430;2022-12-16T19:18:47;-1.30;99.90
35970;DHT22;22448;51.298;6.430;2022-12-16T19:21:46;-1.30;99.90
35970;DHT22;22448;51.298;6.430;2022-12-16T19:24:32;-1.30;99.90
35970;DHT22;22448;51.298;6.430;2022-12-16T19:27:17;-1.30;99.90